Aviation Digital Data Service (ADDS)

Output produced by METARs form (1901 UTC 25 September 2020)
found at http://www.aviationweather.gov/metar/data/
 
Forecast for: EIDW (DUBLIN AIRPORT , IE)
Text: TAF EIDW 251700Z 2518/2618 30010KT 9999 FEW020 SCT050
Forecast period: 1800 UTC 25 September 2020 to 0700 UTC 26 September 2020
Forecast type: FROM: standard forecast or significant change
Winds: from the WNW (300 degrees) at 12 MPH (10 knots; 5.1 m/s)
Visibility: 6 or more miles (10+ km)
Ceiling: at least 12,000 feet AGL
Clouds: few clouds at 2000 feet AGL
scattered clouds at 5000 feet AGL
Weather: no significant weather forecast for this period
Text: BECMG 2607/2609 34010KT
Forecast period: 0700 to 1800 UTC 26 September 2020
Forecast type: BECOMING: Conditions expected to become as follows by 0900 UTC 26 September 2020
Winds: from the NNW (340 degrees) at 12 MPH (10 knots; 5.1 m/s)
Visibility: 6 or more miles (10+ km)
Ceiling: at least 12,000 feet AGL
Clouds: few clouds at 2000 feet AGL
scattered clouds at 5000 feet AGL
Weather: no significant weather forecast for this period